Main page
METAR-TAF:

METAR-TAF

Airports :

AAC Middle Wallop

Middle Wallop, England

latitude: 51-09N, longitude: 001-34W, elevation: 91 m

Current weather observation

The report was made 1 hour and 1 minutes ago, at 08:50 UTC
Wind 11 kt from the East
Temperature 7°C
Humidity 87%
Pressure 1025 hPa
Visibility 10 km or more

METAR: EGVP 170850Z AUTO 09011KT 9999 // BKN010/// 07/05 Q1025

Time: 09:51 (09:51 UTC)

Forecast

The report was made 23 hours and 23 minutes ago, at 10:28 UTC
Forecast valid from 16 at 12 UTC to 16 at 18 UTC
Wind 6 kt from the East
Visibility: 4000 m
Broken clouds at a height of 400 ft
mist
Becoming
from 16 at 12 UTC to 16 at 15 UTC
Visibility: 6000 m
Broken clouds at a height of 800 ft
Temporary
from 16 at 15 UTC to 16 at 18 UTC
Visibility: 4000 m
Broken clouds at a height of 500 ft

TAF: EGVP 161028Z 1612/1618 09006KT 4000 BR BKN004 BECMG 1612/1615 6000 BKN008 TEMPO 1615/1618 4000 BKN005

Weather observations and forecasts of more than 4000 airports (METAR and TAF reports).

The available stations are represented by yellow and red dots on the map.

Hover mouse over dot to see the name of the station.

Then click to see weather observations and forecasts.

To change the map : click on the green buttons with a black cross to zoom in, on the green button with a dash to zoom out, or on the green arrows for adjacent maps.


METAR-TAF: